sensor_id;sensor_type;location;lat;lon;timestamp;pressure;altitude;pressure_sealevel;temperature;humidity
77216;BME280;66210;53.282;9.864;2023-03-11T00:01:03;99340.63;;;-0.32;91.91
77216;BME280;66210;53.282;9.864;2023-03-11T00:03:30;99355.72;;;-0.31;91.47
77216;BME280;66210;53.282;9.864;2023-03-11T00:06:00;99354.63;;;-0.34;91.75
77216;BME280;66210;53.282;9.864;2023-03-11T00:08:27;99368.94;;;-0.32;91.66
77216;BME280;66210;53.282;9.864;2023-03-11T00:10:56;99368.94;;;-0.32;91.67
77216;BME280;66210;53.282;9.864;2023-03-11T00:13:24;99378.19;;;-0.31;91.79
77216;BME280;66210;53.282;9.864;2023-03-11T00:15:53;99373.94;;;-0.32;91.58
77216;BME280;66210;53.282;9.864;2023-03-11T00:18:23;99386.53;;;-0.30;91.50
77216;BME280;66210;53.282;9.864;2023-03-11T00:20:53;99390.66;;;-0.31;91.65
77216;BME280;66210;53.282;9.864;2023-03-11T00:23:21;99396.41;;;-0.32;91.89
77216;BME280;66210;53.282;9.864;2023-03-11T00:25:47;99401.50;;;-0.30;92.00
77216;BME280;66210;53.282;9.864;2023-03-11T00:28:15;99411.59;;;-0.29;91.63
77216;BME280;66210;53.282;9.864;2023-03-11T00:30:44;99411.59;;;-0.29;91.46
77216;BME280;66210;53.282;9.864;2023-03-11T00:33:12;99409.09;;;-0.29;91.78
77216;BME280;66210;53.282;9.864;2023-03-11T00:35:40;99418.41;;;-0.26;91.60
77216;BME280;66210;53.282;9.864;2023-03-11T00:38:13;99419.16;;;-0.27;91.30
77216;BME280;66210;53.282;9.864;2023-03-11T00:40:44;99418.31;;;-0.28;91.64
77216;BME280;66210;53.282;9.864;2023-03-11T00:43:11;99427.31;;;-0.30;91.83
77216;BME280;66210;53.282;9.864;2023-03-11T00:45:38;99430.59;;;-0.31;91.94
77216;BME280;66210;53.282;9.864;2023-03-11T00:48:05;99432.22;;;-0.31;91.86
77216;BME280;66210;53.282;9.864;2023-03-11T00:50:35;99448.06;;;-0.31;91.61
77216;BME280;66210;53.282;9.864;2023-03-11T00:53:03;99452.94;;;-0.32;91.48
77216;BME280;66210;53.282;9.864;2023-03-11T00:55:32;99453.91;;;-0.30;91.81
77216;BME280;66210;53.282;9.864;2023-03-11T00:58:02;99456.28;;;-0.32;91.64
77216;BME280;66210;53.282;9.864;2023-03-11T01:00:30;99458.91;;;-0.30;92.14
77216;BME280;66210;53.282;9.864;2023-03-11T01:02:58;99467.25;;;-0.30;91.95
77216;BME280;66210;53.282;9.864;2023-03-11T01:05:28;99471.50;;;-0.29;91.54
77216;BME280;66210;53.282;9.864;2023-03-11T01:07:55;99466.28;;;-0.32;91.47
77216;BME280;66210;53.282;9.864;2023-03-11T01:10:22;99469.53;;;-0.33;91.94
77216;BME280;66210;53.282;9.864;2023-03-11T01:12:49;99481.25;;;-0.32;91.77
77216;BME280;66210;53.282;9.864;2023-03-11T01:15:23;99487.13;;;-0.31;91.69
77216;BME280;66210;53.282;9.864;2023-03-11T01:17:50;99482.03;;;-0.33;91.60
77216;BME280;66210;53.282;9.864;2023-03-11T01:20:17;99496.22;;;-0.32;91.84
77216;BME280;66210;53.282;9.864;2023-03-11T01:22:44;99499.59;;;-0.31;91.55
77216;BME280;66210;53.282;9.864;2023-03-11T01:25:15;99501.22;;;-0.32;91.62
77216;BME280;66210;53.282;9.864;2023-03-11T01:27:43;99498.41;;;-0.36;91.19
77216;BME280;66210;53.282;9.864;2023-03-11T01:30:14;99510.22;;;-0.34;91.59
77216;BME280;66210;53.282;9.864;2023-03-11T01:32:42;99513.69;;;-0.32;91.34
77216;BME280;66210;53.282;9.864;2023-03-11T01:35:12;99517.63;;;-0.35;91.20
77216;BME280;66210;53.282;9.864;2023-03-11T01:37:38;99510.03;;;-0.37;91.20
77216;BME280;66210;53.282;9.864;2023-03-11T01:40:07;99517.63;;;-0.35;91.12
77216;BME280;66210;53.282;9.864;2023-03-11T01:42:37;99512.41;;;-0.38;90.95
77216;BME280;66210;53.282;9.864;2023-03-11T01:48:02;99518.03;;;-0.41;90.95
77216;BME280;66210;53.282;9.864;2023-03-11T01:50:34;99528.16;;;-0.39;91.01
77216;BME280;66210;53.282;9.864;2023-03-11T01:53:02;99535.63;;;-0.39;90.92
77216;BME280;66210;53.282;9.864;2023-03-11T01:55:30;99538.13;;;-0.39;90.99
77216;BME280;66210;53.282;9.864;2023-03-11T01:57:59;99546.47;;;-0.39;90.99
77216;BME280;66210;53.282;9.864;2023-03-11T02:00:27;99557.31;;;-0.38;90.81
77216;BME280;66210;53.282;9.864;2023-03-11T02:02:56;99567.09;;;-0.42;90.71
77216;BME280;66210;53.282;9.864;2023-03-11T02:05:24;99572.75;;;-0.44;90.82
77216;BME280;66210;53.282;9.864;2023-03-11T02:07:52;99577.84;;;-0.43;91.07
77216;BME280;66210;53.282;9.864;2023-03-11T02:10:20;99582.84;;;-0.43;90.77
77216;BME280;66210;53.282;9.864;2023-03-11T02:12:47;99595.31;;;-0.43;91.17
77216;BME280;66210;53.282;9.864;2023-03-11T02:15:16;99585.97;;;-0.45;91.10
77216;BME280;66210;53.282;9.864;2023-03-11T02:17:43;99588.38;;;-0.47;91.01
77216;BME280;66210;53.282;9.864;2023-03-11T02:20:20;99596.84;;;-0.45;91.14
77216;BME280;66210;53.282;9.864;2023-03-11T02:22:53;99606.91;;;-0.43;91.05
77216;BME280;66210;53.282;9.864;2023-03-11T02:27:53;99607.44;;;-0.47;90.53
77216;BME280;66210;53.282;9.864;2023-03-11T02:30:21;99611.69;;;-0.46;91.19
77216;BME280;66210;53.282;9.864;2023-03-11T02:32:49;99610.91;;;-0.45;90.72
77216;BME280;66210;53.282;9.864;2023-03-11T02:35:16;99600.84;;;-0.47;90.62
77216;BME280;66210;53.282;9.864;2023-03-11T02:37:48;99615.16;;;-0.44;90.74
77216;BME280;66210;53.282;9.864;2023-03-11T02:42:58;99617.31;;;-0.49;90.48
77216;BME280;66210;53.282;9.864;2023-03-11T02:45:26;99614.19;;;-0.46;90.56
77216;BME280;66210;53.282;9.864;2023-03-11T02:47:54;99621.47;;;-0.49;90.22
77216;BME280;66210;53.282;9.864;2023-03-11T02:50:23;99622.66;;;-0.56;90.27
77216;BME280;66210;53.282;9.864;2023-03-11T02:52:51;99633.81;;;-0.51;90.22
77216;BME280;66210;53.282;9.864;2023-03-11T02:55:19;99637.03;;;-0.52;90.06
77216;BME280;66210;53.282;9.864;2023-03-11T02:57:46;99638.91;;;-0.49;90.13
77216;BME280;66210;53.282;9.864;2023-03-11T03:00:15;99639.00;;;-0.48;90.55
77216;BME280;66210;53.282;9.864;2023-03-11T03:02:44;99647.16;;;-0.50;90.52
77216;BME280;66210;53.282;9.864;2023-03-11T03:05:12;99650.63;;;-0.48;90.44
77216;BME280;66210;53.282;9.864;2023-03-11T03:07:39;99658.88;;;-0.49;90.82
77216;BME280;66210;53.282;9.864;2023-03-11T03:10:06;99653.88;;;-0.49;90.68
77216;BME280;66210;53.282;9.864;2023-03-11T03:12:33;99663.22;;;-0.47;90.60
77216;BME280;66210;53.282;9.864;2023-03-11T03:14:59;99662.44;;;-0.46;90.46
77216;BME280;66210;53.282;9.864;2023-03-11T03:17:26;99656.47;;;-0.48;90.76
77216;BME280;66210;53.282;9.864;2023-03-11T03:19:53;99670.78;;;-0.45;90.49
77216;BME280;66210;53.282;9.864;2023-03-11T03:22:19;99673.28;;;-0.45;90.59
77216;BME280;66210;53.282;9.864;2023-03-11T03:24:46;99678.94;;;-0.48;90.71
77216;BME280;66210;53.282;9.864;2023-03-11T03:27:13;99681.88;;;-0.53;90.64
77216;BME280;66210;53.282;9.864;2023-03-11T03:29:39;99680.34;;;-0.51;90.92
77216;BME280;66210;53.282;9.864;2023-03-11T03:32:06;99691.41;;;-0.48;90.71
77216;BME280;66210;53.282;9.864;2023-03-11T03:34:33;99699.53;;;-0.50;91.12
77216;BME280;66210;53.282;9.864;2023-03-11T03:37:00;99702.16;;;-0.49;90.51
77216;BME280;66210;53.282;9.864;2023-03-11T03:39:26;99698.69;;;-0.51;90.70
77216;BME280;66210;53.282;9.864;2023-03-11T03:41:56;99712.22;;;-0.47;90.32
77216;BME280;66210;53.282;9.864;2023-03-11T03:44:22;99708.00;;;-0.48;90.59
77216;BME280;66210;53.282;9.864;2023-03-11T03:46:49;99712.13;;;-0.49;90.47
77216;BME280;66210;53.282;9.864;2023-03-11T03:49:16;99710.28;;;-0.51;90.20
77216;BME280;66210;53.282;9.864;2023-03-11T03:51:43;99736.31;;;-0.48;90.29
77216;BME280;66210;53.282;9.864;2023-03-11T03:54:09;99737.31;;;-0.46;90.26
77216;BME280;66210;53.282;9.864;2023-03-11T03:56:36;99745.66;;;-0.45;90.18
77216;BME280;66210;53.282;9.864;2023-03-11T03:59:03;99750.56;;;-0.47;90.17
77216;BME280;66210;53.282;9.864;2023-03-11T04:01:30;99747.94;;;-0.48;90.05
77216;BME280;66210;53.282;9.864;2023-03-11T04:03:57;99748.78;;;-0.48;89.95
77216;BME280;66210;53.282;9.864;2023-03-11T04:06:25;99751.19;;;-0.49;90.32
77216;BME280;66210;53.282;9.864;2023-03-11T04:08:53;99749.56;;;-0.49;89.87
77216;BME280;66210;53.282;9.864;2023-03-11T04:11:21;99753.03;;;-0.47;90.01
77216;BME280;66210;53.282;9.864;2023-03-11T04:13:48;99752.91;;;-0.48;90.08
77216;BME280;66210;53.282;9.864;2023-03-11T04:16:20;99749.75;;;-0.57;89.61
77216;BME280;66210;53.282;9.864;2023-03-11T04:18:48;99769.28;;;-0.52;89.95
77216;BME280;66210;53.282;9.864;2023-03-11T04:21:15;99769.41;;;-0.50;90.34
77216;BME280;66210;53.282;9.864;2023-03-11T04:23:41;99784.16;;;-0.53;89.69
77216;BME280;66210;53.282;9.864;2023-03-11T04:26:08;99778.91;;;-0.56;90.00
77216;BME280;66210;53.282;9.864;2023-03-11T04:28:35;99787.38;;;-0.54;89.63
77216;BME280;66210;53.282;9.864;2023-03-11T04:31:02;99786.41;;;-0.56;89.95
77216;BME280;66210;53.282;9.864;2023-03-11T04:33:29;99782.84;;;-0.60;89.74
77216;BME280;66210;53.282;9.864;2023-03-11T04:35:56;99784.47;;;-0.60;89.61
77216;BME280;66210;53.282;9.864;2023-03-11T04:38:23;99792.28;;;-0.56;89.96
77216;BME280;66210;53.282;9.864;2023-03-11T04:40:50;99783.81;;;-0.58;89.92
77216;BME280;66210;53.282;9.864;2023-03-11T04:43:16;99788.03;;;-0.57;89.56
77216;BME280;66210;53.282;9.864;2023-03-11T04:45:43;99782.59;;;-0.63;89.30
77216;BME280;66210;53.282;9.864;2023-03-11T04:48:10;99790.06;;;-0.63;89.83
77216;BME280;66210;53.282;9.864;2023-03-11T04:50:36;99792.22;;;-0.68;89.40
77216;BME280;66210;53.282;9.864;2023-03-11T04:53:03;99801.97;;;-0.71;89.18
77216;BME280;66210;53.282;9.864;2023-03-11T04:55:30;99805.13;;;-0.73;89.55
77216;BME280;66210;53.282;9.864;2023-03-11T04:57:56;99810.09;;;-0.73;89.21
77216;BME280;66210;53.282;9.864;2023-03-11T05:00:23;99817.47;;;-0.75;89.11
77216;BME280;66210;53.282;9.864;2023-03-11T05:02:50;99828.19;;;-0.76;89.23
77216;BME280;66210;53.282;9.864;2023-03-11T05:05:18;99830.44;;;-0.79;89.18
77216;BME280;66210;53.282;9.864;2023-03-11T05:07:45;99825.97;;;-0.83;89.00
77216;BME280;66210;53.282;9.864;2023-03-11T05:10:13;99839.44;;;-0.81;88.90
77216;BME280;66210;53.282;9.864;2023-03-11T05:12:40;99838.56;;;-0.81;88.86
77216;BME280;66210;53.282;9.864;2023-03-11T05:15:07;99848.53;;;-0.81;89.19
77216;BME280;66210;53.282;9.864;2023-03-11T05:17:33;99847.69;;;-0.82;89.23
77216;BME280;66210;53.282;9.864;2023-03-11T05:20:00;99845.81;;;-0.85;88.80
77216;BME280;66210;53.282;9.864;2023-03-11T05:22:27;99855.91;;;-0.83;89.05
77216;BME280;66210;53.282;9.864;2023-03-11T05:24:53;99850.56;;;-0.88;88.90
77216;BME280;66210;53.282;9.864;2023-03-11T05:27:20;99864.28;;;-0.82;89.09
77216;BME280;66210;53.282;9.864;2023-03-11T05:29:47;99871.00;;;-0.81;88.91
77216;BME280;66210;53.282;9.864;2023-03-11T05:32:14;99875.75;;;-0.85;89.05
77216;BME280;66210;53.282;9.864;2023-03-11T05:34:41;99873.91;;;-0.87;88.95
77216;BME280;66210;53.282;9.864;2023-03-11T05:37:08;99889.84;;;-0.85;89.17
77216;BME280;66210;53.282;9.864;2023-03-11T05:39:34;99884.88;;;-0.85;88.73
77216;BME280;66210;53.282;9.864;2023-03-11T05:42:03;99885.94;;;-0.81;89.02
77216;BME280;66210;53.282;9.864;2023-03-11T05:44:30;99895.28;;;-0.79;89.02
77216;BME280;66210;53.282;9.864;2023-03-11T05:46:57;99899.28;;;-0.81;89.04
77216;BME280;66210;53.282;9.864;2023-03-11T05:49:25;99907.75;;;-0.79;89.07
77216;BME280;66210;53.282;9.864;2023-03-11T05:51:52;99911.16;;;-0.78;89.26
77216;BME280;66210;53.282;9.864;2023-03-11T05:54:22;99915.38;;;-0.77;89.22
77216;BME280;66210;53.282;9.864;2023-03-11T05:56:48;99913.63;;;-0.78;89.38
77216;BME280;66210;53.282;9.864;2023-03-11T05:59:16;99917.72;;;-0.79;89.11
77216;BME280;66210;53.282;9.864;2023-03-11T06:01:43;99918.25;;;-0.83;89.32
77216;BME280;66210;53.282;9.864;2023-03-11T06:04:10;99938.69;;;-0.77;89.22
77216;BME280;66210;53.282;9.864;2023-03-11T06:06:38;99941.06;;;-0.78;89.55
77216;BME280;66210;53.282;9.864;2023-03-11T06:09:12;99938.59;;;-0.78;88.91
77216;BME280;66210;53.282;9.864;2023-03-11T06:11:40;99950.28;;;-0.77;89.11
77216;BME280;66210;53.282;9.864;2023-03-11T06:14:10;99950.28;;;-0.77;89.42
77216;BME280;66210;53.282;9.864;2023-03-11T06:16:37;99960.25;;;-0.77;89.27
77216;BME280;66210;53.282;9.864;2023-03-11T06:19:04;99951.78;;;-0.79;89.46
77216;BME280;66210;53.282;9.864;2023-03-11T06:21:31;99956.03;;;-0.78;89.27
77216;BME280;66210;53.282;9.864;2023-03-11T06:23:58;99961.25;;;-0.75;89.17
77216;BME280;66210;53.282;9.864;2023-03-11T06:26:25;99960.25;;;-0.77;89.17
77216;BME280;66210;53.282;9.864;2023-03-11T06:28:52;99964.59;;;-0.75;89.22
77216;BME280;66210;53.282;9.864;2023-03-11T06:31:22;99972.97;;;-0.74;89.32
77216;BME280;66210;53.282;9.864;2023-03-11T06:33:51;99977.34;;;-0.72;89.41
77216;BME280;66210;53.282;9.864;2023-03-11T06:36:19;99977.94;;;-0.74;89.43
77216;BME280;66210;53.282;9.864;2023-03-11T06:38:46;99984.81;;;-0.72;89.88
77216;BME280;66210;53.282;9.864;2023-03-11T06:41:15;99981.44;;;-0.72;88.89
77216;BME280;66210;53.282;9.864;2023-03-11T06:43:42;99991.91;;;-0.66;89.03
77216;BME280;66210;53.282;9.864;2023-03-11T06:46:14;99985.41;;;-0.64;89.00
77216;BME280;66210;53.282;9.864;2023-03-11T06:48:42;99992.38;;;-0.60;88.66
77216;BME280;66210;53.282;9.864;2023-03-11T06:51:09;100003.34;;;-0.58;88.82
77216;BME280;66210;53.282;9.864;2023-03-11T06:53:36;100013.69;;;-0.53;88.91
77216;BME280;66210;53.282;9.864;2023-03-11T06:56:05;100016.28;;;-0.52;88.95
77216;BME280;66210;53.282;9.864;2023-03-11T06:58:33;100018.19;;;-0.49;88.82
77216;BME280;66210;53.282;9.864;2023-03-11T07:01:15;100020.78;;;-0.48;88.64
77216;BME280;66210;53.282;9.864;2023-03-11T07:03:45;100029.03;;;-0.49;88.70
77216;BME280;66210;53.282;9.864;2023-03-11T07:06:14;100028.38;;;-0.46;88.77
77216;BME280;66210;53.282;9.864;2023-03-11T07:08:41;100032.75;;;-0.44;89.15
77216;BME280;66210;53.282;9.864;2023-03-11T07:11:11;100032.88;;;-0.42;88.36
77216;BME280;66210;53.282;9.864;2023-03-11T07:13:40;100039.34;;;-0.44;88.45
77216;BME280;66210;53.282;9.864;2023-03-11T07:16:12;100038.59;;;-0.43;88.70
77216;BME280;66210;53.282;9.864;2023-03-11T07:18:42;100040.34;;;-0.42;88.32
77216;BME280;66210;53.282;9.864;2023-03-11T07:21:11;100049.56;;;-0.41;88.52
77216;BME280;66210;53.282;9.864;2023-03-11T07:23:39;100050.44;;;-0.40;88.49
77216;BME280;66210;53.282;9.864;2023-03-11T07:26:10;100037.59;;;-0.45;88.54
77216;BME280;66210;53.282;9.864;2023-03-11T07:28:37;100055.56;;;-0.39;88.84
77216;BME280;66210;53.282;9.864;2023-03-11T07:31:09;100065.41;;;-0.40;88.74
77216;BME280;66210;53.282;9.864;2023-03-11T07:33:36;100069.03;;;-0.37;88.83
77216;BME280;66210;53.282;9.864;2023-03-11T07:36:05;100077.50;;;-0.35;88.65
77216;BME280;66210;53.282;9.864;2023-03-11T07:38:32;100086.13;;;-0.31;88.61
77216;BME280;66210;53.282;9.864;2023-03-11T07:40:59;100094.22;;;-0.34;88.66
77216;BME280;66210;53.282;9.864;2023-03-11T07:43:26;100083.50;;;-0.33;88.94
77216;BME280;66210;53.282;9.864;2023-03-11T07:46:08;100087.72;;;-0.32;88.26
77216;BME280;66210;53.282;9.864;2023-03-11T07:48:36;100095.13;;;-0.33;88.88
77216;BME280;66210;53.282;9.864;2023-03-11T07:51:15;100096.63;;;-0.35;88.93
77216;BME280;66210;53.282;9.864;2023-03-11T07:53:42;100110.19;;;-0.32;89.09
77216;BME280;66210;53.282;9.864;2023-03-11T07:56:10;100116.31;;;-0.28;89.06
77216;BME280;66210;53.282;9.864;2023-03-11T07:58:38;100121.16;;;-0.30;88.88
77216;BME280;66210;53.282;9.864;2023-03-11T08:01:08;100123.78;;;-0.28;88.88
77216;BME280;66210;53.282;9.864;2023-03-11T08:03:36;100134.91;;;-0.25;88.94
77216;BME280;66210;53.282;9.864;2023-03-11T08:06:14;100133.91;;;-0.27;88.85
77216;BME280;66210;53.282;9.864;2023-03-11T08:08:41;100148.34;;;-0.23;88.95
77216;BME280;66210;53.282;9.864;2023-03-11T08:11:08;100149.13;;;-0.24;88.91
77216;BME280;66210;53.282;9.864;2023-03-11T08:13:35;100149.88;;;-0.25;88.82
77216;BME280;66210;53.282;9.864;2023-03-11T08:16:03;100161.22;;;-0.18;88.74
77216;BME280;66210;53.282;9.864;2023-03-11T08:18:31;100164.69;;;-0.16;88.86
77216;BME280;66210;53.282;9.864;2023-03-11T08:20:58;100167.44;;;-0.13;89.19
77216;BME280;66210;53.282;9.864;2023-03-11T08:23:24;100180.78;;;-0.12;88.64
77216;BME280;66210;53.282;9.864;2023-03-11T08:25:51;100181.66;;;-0.12;89.09
77216;BME280;66210;53.282;9.864;2023-03-11T08:28:18;100179.28;;;-0.10;89.00
77216;BME280;66210;53.282;9.864;2023-03-11T08:30:44;100184.28;;;-0.10;88.67
77216;BME280;66210;53.282;9.864;2023-03-11T08:33:11;100186.03;;;-0.09;88.90
77216;BME280;66210;53.282;9.864;2023-03-11T08:35:38;100187.91;;;-0.07;88.57
77216;BME280;66210;53.282;9.864;2023-03-11T08:38:05;100193.13;;;-0.04;88.83
77216;BME280;66210;53.282;9.864;2023-03-11T08:40:34;100195.00;;;-0.01;88.82
77216;BME280;66210;53.282;9.864;2023-03-11T08:43:01;100197.50;;;-0.01;88.72
77216;BME280;66210;53.282;9.864;2023-03-11T08:45:27;100197.84;;;0.04;89.11
77216;BME280;66210;53.282;9.864;2023-03-11T08:47:54;100203.09;;;0.07;89.45
77216;BME280;66210;53.282;9.864;2023-03-11T08:50:22;100198.34;;;0.10;89.07
77216;BME280;66210;53.282;9.864;2023-03-11T08:52:49;100202.56;;;0.11;89.08
77216;BME280;66210;53.282;9.864;2023-03-11T08:55:16;100209.44;;;0.13;89.14
77216;BME280;66210;53.282;9.864;2023-03-11T08:57:49;100207.94;;;0.15;88.80
77216;BME280;66210;53.282;9.864;2023-03-11T09:00:16;100210.56;;;0.17;88.61
77216;BME280;66210;53.282;9.864;2023-03-11T09:02:43;100210.69;;;0.18;88.90
77216;BME280;66210;53.282;9.864;2023-03-11T09:05:10;100211.41;;;0.17;89.27
77216;BME280;66210;53.282;9.864;2023-03-11T09:07:37;100214.78;;;0.18;89.18
77216;BME280;66210;53.282;9.864;2023-03-11T09:10:04;100219.91;;;0.19;89.13
77216;BME280;66210;53.282;9.864;2023-03-11T09:12:30;100220.69;;;0.18;88.95
77216;BME280;66210;53.282;9.864;2023-03-11T09:14:57;100220.56;;;0.17;88.34
77216;BME280;66210;53.282;9.864;2023-03-11T09:17:24;100223.19;;;0.18;89.18
77216;BME280;66210;53.282;9.864;2023-03-11T09:19:51;100229.91;;;0.19;88.14
77216;BME280;66210;53.282;9.864;2023-03-11T09:22:18;100231.53;;;0.19;88.65
77216;BME280;66210;53.282;9.864;2023-03-11T09:24:44;100246.75;;;0.22;89.03
77216;BME280;66210;53.282;9.864;2023-03-11T09:27:11;100234.03;;;0.19;88.78
77216;BME280;66210;53.282;9.864;2023-03-11T09:29:39;100238.25;;;0.20;88.41
77216;BME280;66210;53.282;9.864;2023-03-11T09:32:06;100239.41;;;0.24;88.45
77216;BME280;66210;53.282;9.864;2023-03-11T09:34:33;100237.03;;;0.25;88.26
77216;BME280;66210;53.282;9.864;2023-03-11T09:37:00;100245.75;;;0.30;88.59
77216;BME280;66210;53.282;9.864;2023-03-11T09:39:28;100248.38;;;0.32;88.13
77216;BME280;66210;53.282;9.864;2023-03-11T09:41:57;100253.38;;;0.32;88.62
77216;BME280;66210;53.282;9.864;2023-03-11T09:44:44;100258.25;;;0.30;87.96
77216;BME280;66210;53.282;9.864;2023-03-11T09:47:32;100259.38;;;0.34;88.67
77216;BME280;66210;53.282;9.864;2023-03-11T09:50:49;100262.09;;;0.37;87.53
77216;BME280;66210;53.282;9.864;2023-03-11T09:53:36;100259.72;;;0.38;87.51
77216;BME280;66210;53.282;9.864;2023-03-11T09:56:08;100258.22;;;0.40;87.26
77216;BME280;66210;53.282;9.864;2023-03-11T09:58:40;100253.97;;;0.39;87.96
77216;BME280;66210;53.282;9.864;2023-03-11T10:01:28;100268.69;;;0.47;88.29
77216;BME280;66210;53.282;9.864;2023-03-11T10:04:01;100264.66;;;0.49;88.34
77216;BME280;66210;53.282;9.864;2023-03-11T10:06:30;100270.16;;;0.55;88.58
77216;BME280;66210;53.282;9.864;2023-03-11T10:09:06;100274.75;;;0.60;88.99
77216;BME280;66210;53.282;9.864;2023-03-11T10:14:41;100272.44;;;0.74;88.38
77216;BME280;66210;53.282;9.864;2023-03-11T10:17:53;100272.75;;;0.89;88.47
77216;BME280;66210;53.282;9.864;2023-03-11T10:23:21;100271.59;;;1.17;87.96
77216;BME280;66210;53.282;9.864;2023-03-11T10:26:03;100275.00;;;1.30;87.37
77216;BME280;66210;53.282;9.864;2023-03-11T10:28:50;100271.81;;;1.42;87.20
77216;BME280;66210;53.282;9.864;2023-03-11T10:31:33;100273.81;;;1.58;87.60
77216;BME280;66210;53.282;9.864;2023-03-11T10:34:08;100270.72;;;1.73;85.65
77216;BME280;66210;53.282;9.864;2023-03-11T10:37:04;100276.72;;;1.86;85.32
77216;BME280;66210;53.282;9.864;2023-03-11T10:39:32;100273.91;;;1.94;84.57
77216;BME280;66210;53.282;9.864;2023-03-11T10:42:01;100278.19;;;2.06;84.20
77216;BME280;66210;53.282;9.864;2023-03-11T10:44:35;100275.22;;;2.24;84.69
77216;BME280;66210;53.282;9.864;2023-03-11T10:47:04;100279.03;;;2.31;81.12
77216;BME280;66210;53.282;9.864;2023-03-11T10:49:31;100283.63;;;2.48;84.15
77216;BME280;66210;53.282;9.864;2023-03-11T10:51:58;100287.41;;;2.66;83.44
77216;BME280;66210;53.282;9.864;2023-03-11T10:54:29;100288.38;;;2.80;83.21
77216;BME280;66210;53.282;9.864;2023-03-11T10:57:02;100287.72;;;2.95;81.85
77216;BME280;66210;53.282;9.864;2023-03-11T10:59:45;100295.06;;;3.17;81.35
77216;BME280;66210;53.282;9.864;2023-03-11T11:02:25;100291.91;;;3.19;81.11
77216;BME280;66210;53.282;9.864;2023-03-11T11:05:06;100291.28;;;3.35;81.64
77216;BME280;66210;53.282;9.864;2023-03-11T11:07:36;100289.34;;;3.56;81.03
77216;BME280;66210;53.282;9.864;2023-03-11T11:13:00;100287.19;;;3.87;81.25
77216;BME280;66210;53.282;9.864;2023-03-11T11:15:37;100283.69;;;4.10;80.20
77216;BME280;66210;53.282;9.864;2023-03-11T11:18:13;100282.00;;;3.98;76.71
77216;BME280;66210;53.282;9.864;2023-03-11T11:23:29;100286.84;;;3.69;77.12
77216;BME280;66210;53.282;9.864;2023-03-11T11:25:59;100288.00;;;3.61;78.56
77216;BME280;66210;53.282;9.864;2023-03-11T11:28:26;100284.13;;;3.53;80.33
77216;BME280;66210;53.282;9.864;2023-03-11T11:30:59;100278.47;;;3.44;80.28
77216;BME280;66210;53.282;9.864;2023-03-11T11:33:32;100278.53;;;3.32;79.32
77216;BME280;66210;53.282;9.864;2023-03-11T11:36:02;100289.06;;;3.15;79.35
77216;BME280;66210;53.282;9.864;2023-03-11T11:38:31;100290.28;;;3.08;80.60
77216;BME280;66210;53.282;9.864;2023-03-11T11:41:03;100286.84;;;2.94;80.13
77216;BME280;66210;53.282;9.864;2023-03-11T11:43:45;100287.16;;;2.87;80.67
77216;BME280;66210;53.282;9.864;2023-03-11T11:46:30;100281.72;;;2.69;80.24
77216;BME280;66210;53.282;9.864;2023-03-11T11:52:15;100288.84;;;2.63;82.52
77216;BME280;66210;53.282;9.864;2023-03-11T11:54:53;100287.63;;;2.58;83.00
77216;BME280;66210;53.282;9.864;2023-03-11T11:57:23;100283.81;;;2.51;81.80
77216;BME280;66210;53.282;9.864;2023-03-11T11:59:50;100287.00;;;2.48;82.18
77216;BME280;66210;53.282;9.864;2023-03-11T12:02:40;100280.25;;;2.47;82.59
77216;BME280;66210;53.282;9.864;2023-03-11T12:05:21;100289.19;;;2.44;83.11
77216;BME280;66210;53.282;9.864;2023-03-11T12:08:00;100288.09;;;2.40;82.26
77216;BME280;66210;53.282;9.864;2023-03-11T12:10:33;100290.16;;;2.34;82.64
77216;BME280;66210;53.282;9.864;2023-03-11T12:13:25;100289.63;;;2.38;83.44
77216;BME280;66210;53.282;9.864;2023-03-11T12:16:22;100290.50;;;2.39;81.73
77216;BME280;66210;53.282;9.864;2023-03-11T12:24:22;100279.47;;;2.48;82.67
77216;BME280;66210;53.282;9.864;2023-03-11T12:26:52;100284.06;;;2.54;82.98
77216;BME280;66210;53.282;9.864;2023-03-11T12:29:33;100281.22;;;2.61;82.54
77216;BME280;66210;53.282;9.864;2023-03-11T12:32:04;100284.34;;;2.70;82.10
77216;BME280;66210;53.282;9.864;2023-03-11T12:34:34;100276.16;;;2.73;81.01
77216;BME280;66210;53.282;9.864;2023-03-11T12:37:12;100279.22;;;2.81;81.90
77216;BME280;66210;53.282;9.864;2023-03-11T12:39:39;100286.28;;;2.86;82.10
77216;BME280;66210;53.282;9.864;2023-03-11T12:42:22;100282.25;;;2.88;82.22
77216;BME280;66210;53.282;9.864;2023-03-11T12:44:52;100281.72;;;2.92;82.25
77216;BME280;66210;53.282;9.864;2023-03-11T12:47:23;100285.53;;;2.87;82.41
77216;BME280;66210;53.282;9.864;2023-03-11T12:49:52;100290.13;;;2.81;81.31
77216;BME280;66210;53.282;9.864;2023-03-11T12:52:26;100296.56;;;2.78;81.24
77216;BME280;66210;53.282;9.864;2023-03-11T13:00:25;100300.41;;;2.73;82.67
77216;BME280;66210;53.282;9.864;2023-03-11T13:03:11;100290.69;;;2.65;82.69
77216;BME280;66210;53.282;9.864;2023-03-11T13:05:59;100295.72;;;2.65;83.17
77216;BME280;66210;53.282;9.864;2023-03-11T13:14:08;100303.13;;;2.52;82.48
77216;BME280;66210;53.282;9.864;2023-03-11T13:16:38;100306.31;;;2.49;83.52
77216;BME280;66210;53.282;9.864;2023-03-11T13:21:59;100302.03;;;2.37;81.13
77216;BME280;66210;53.282;9.864;2023-03-11T13:27:02;100300.19;;;2.34;81.66
77216;BME280;66210;53.282;9.864;2023-03-11T13:29:55;100295.31;;;2.36;82.24
77216;BME280;66210;53.282;9.864;2023-03-11T13:32:52;100303.69;;;2.36;82.69
77216;BME280;66210;53.282;9.864;2023-03-11T13:35:42;100310.56;;;2.39;82.60
77216;BME280;66210;53.282;9.864;2023-03-11T13:38:32;100307.28;;;2.40;82.68
77216;BME280;66210;53.282;9.864;2023-03-11T13:41:02;100310.66;;;2.40;82.13
77216;BME280;66210;53.282;9.864;2023-03-11T13:43:43;100305.66;;;2.40;82.46
77216;BME280;66210;53.282;9.864;2023-03-11T13:46:33;100292.56;;;2.33;83.28
77216;BME280;66210;53.282;9.864;2023-03-11T13:51:53;100299.34;;;2.34;81.17
77216;BME280;66210;53.282;9.864;2023-03-11T13:54:37;100309.34;;;2.34;82.91
77216;BME280;66210;53.282;9.864;2023-03-11T13:57:35;100312.72;;;2.34;81.87
77216;BME280;66210;53.282;9.864;2023-03-11T14:00:12;100305.00;;;2.31;82.69
77216;BME280;66210;53.282;9.864;2023-03-11T14:02:55;100317.09;;;2.37;83.41